sensor_id;sensor_type;location;lat;lon;timestamp;temperature;humidity
13332;DHT22;6735;51.456;12.626;2023-03-01T00:01:21;-2.40;78.30
13332;DHT22;6735;51.456;12.626;2023-03-01T00:03:47;-2.40;78.40
13332;DHT22;6735;51.456;12.626;2023-03-01T00:06:13;-2.50;78.50
13332;DHT22;6735;51.456;12.626;2023-03-01T00:08:38;-2.50;78.70
13332;DHT22;6735;51.456;12.626;2023-03-01T00:11:07;-2.50;78.70
13332;DHT22;6735;51.456;12.626;2023-03-01T00:13:34;-2.50;78.40
13332;DHT22;6735;51.456;12.626;2023-03-01T00:16:03;-2.50;78.30
13332;DHT22;6735;51.456;12.626;2023-03-01T00:18:30;-2.60;79.30
13332;DHT22;6735;51.456;12.626;2023-03-01T00:20:55;-2.60;79.70
13332;DHT22;6735;51.456;12.626;2023-03-01T00:23:22;-2.60;79.80
13332;DHT22;6735;51.456;12.626;2023-03-01T00:25:48;-2.60;79.50
13332;DHT22;6735;51.456;12.626;2023-03-01T00:28:14;-2.70;79.60
13332;DHT22;6735;51.456;12.626;2023-03-01T00:30:40;-2.70;79.60
13332;DHT22;6735;51.456;12.626;2023-03-01T00:33:05;-2.70;79.20
13332;DHT22;6735;51.456;12.626;2023-03-01T00:35:32;-2.70;79.30
13332;DHT22;6735;51.456;12.626;2023-03-01T00:37:58;-2.70;79.20
13332;DHT22;6735;51.456;12.626;2023-03-01T00:40:25;-2.70;79.20
13332;DHT22;6735;51.456;12.626;2023-03-01T00:42:51;-2.70;79.30
13332;DHT22;6735;51.456;12.626;2023-03-01T00:45:16;-2.80;79.30
13332;DHT22;6735;51.456;12.626;2023-03-01T00:47:43;-2.70;79.50
13332;DHT22;6735;51.456;12.626;2023-03-01T00:50:10;-2.80;79.50
13332;DHT22;6735;51.456;12.626;2023-03-01T00:52:36;-2.80;79.40
13332;DHT22;6735;51.456;12.626;2023-03-01T00:55:02;-2.80;79.20
13332;DHT22;6735;51.456;12.626;2023-03-01T00:57:27;-2.80;79.30
13332;DHT22;6735;51.456;12.626;2023-03-01T00:59:52;-2.80;79.40
13332;DHT22;6735;51.456;12.626;2023-03-01T01:02:19;-2.80;79.20
13332;DHT22;6735;51.456;12.626;2023-03-01T01:04:45;-2.90;79.30
13332;DHT22;6735;51.456;12.626;2023-03-01T01:07:10;-2.90;79.80
13332;DHT22;6735;51.456;12.626;2023-03-01T01:09:36;-2.90;79.70
13332;DHT22;6735;51.456;12.626;2023-03-01T01:12:02;-2.90;79.60
13332;DHT22;6735;51.456;12.626;2023-03-01T01:14:28;-3.00;79.60
13332;DHT22;6735;51.456;12.626;2023-03-01T01:16:54;-3.00;79.50
13332;DHT22;6735;51.456;12.626;2023-03-01T01:19:20;-3.00;79.70
13332;DHT22;6735;51.456;12.626;2023-03-01T01:21:46;-3.00;79.90
13332;DHT22;6735;51.456;12.626;2023-03-01T01:24:13;-3.00;80.30
13332;DHT22;6735;51.456;12.626;2023-03-01T01:26:38;-3.00;79.90
13332;DHT22;6735;51.456;12.626;2023-03-01T01:29:05;-3.00;80.00
13332;DHT22;6735;51.456;12.626;2023-03-01T01:31:31;-3.00;80.10
13332;DHT22;6735;51.456;12.626;2023-03-01T01:33:58;-3.00;80.30
13332;DHT22;6735;51.456;12.626;2023-03-01T01:36:24;-3.00;79.90
13332;DHT22;6735;51.456;12.626;2023-03-01T01:38:50;-3.10;80.00
13332;DHT22;6735;51.456;12.626;2023-03-01T01:41:16;-3.10;80.00
13332;DHT22;6735;51.456;12.626;2023-03-01T01:43:45;-3.10;80.20
13332;DHT22;6735;51.456;12.626;2023-03-01T01:46:31;-3.10;80.00
13332;DHT22;6735;51.456;12.626;2023-03-01T01:49:02;-3.10;79.70
13332;DHT22;6735;51.456;12.626;2023-03-01T01:51:33;-3.20;80.20
13332;DHT22;6735;51.456;12.626;2023-03-01T01:54:09;-3.20;79.90
13332;DHT22;6735;51.456;12.626;2023-03-01T01:56:37;-3.20;80.00
13332;DHT22;6735;51.456;12.626;2023-03-01T01:59:03;-3.20;79.90
13332;DHT22;6735;51.456;12.626;2023-03-01T02:01:29;-3.20;80.10
13332;DHT22;6735;51.456;12.626;2023-03-01T02:03:55;-3.20;80.10
13332;DHT22;6735;51.456;12.626;2023-03-01T02:06:31;-3.30;80.00
13332;DHT22;6735;51.456;12.626;2023-03-01T02:09:02;-3.30;80.00
13332;DHT22;6735;51.456;12.626;2023-03-01T02:11:30;-3.30;80.30
13332;DHT22;6735;51.456;12.626;2023-03-01T02:13:56;-3.30;80.50
13332;DHT22;6735;51.456;12.626;2023-03-01T02:16:22;-3.30;80.30
13332;DHT22;6735;51.456;12.626;2023-03-01T02:18:49;-3.30;80.60
13332;DHT22;6735;51.456;12.626;2023-03-01T02:21:34;-3.30;80.60
13332;DHT22;6735;51.456;12.626;2023-03-01T02:26:40;-3.30;81.00
13332;DHT22;6735;51.456;12.626;2023-03-01T02:29:08;-3.30;81.30
13332;DHT22;6735;51.456;12.626;2023-03-01T02:31:33;-3.30;81.10
13332;DHT22;6735;51.456;12.626;2023-03-01T02:34:10;-3.30;80.90
13332;DHT22;6735;51.456;12.626;2023-03-01T02:36:41;-3.30;80.80
13332;DHT22;6735;51.456;12.626;2023-03-01T02:39:11;-3.30;80.70
13332;DHT22;6735;51.456;12.626;2023-03-01T02:41:41;-3.40;80.80
13332;DHT22;6735;51.456;12.626;2023-03-01T02:44:07;-3.40;81.10
13332;DHT22;6735;51.456;12.626;2023-03-01T02:46:33;-3.40;80.60
13332;DHT22;6735;51.456;12.626;2023-03-01T02:48:59;-3.40;80.70
13332;DHT22;6735;51.456;12.626;2023-03-01T02:54:25;-3.40;80.80
13332;DHT22;6735;51.456;12.626;2023-03-01T02:56:53;-3.40;80.80
13332;DHT22;6735;51.456;12.626;2023-03-01T02:59:22;-3.50;80.90
13332;DHT22;6735;51.456;12.626;2023-03-01T03:01:47;-3.50;81.00
13332;DHT22;6735;51.456;12.626;2023-03-01T03:04:17;-3.50;81.00
13332;DHT22;6735;51.456;12.626;2023-03-01T03:06:47;-3.50;81.00
13332;DHT22;6735;51.456;12.626;2023-03-01T03:09:14;-3.50;80.90
13332;DHT22;6735;51.456;12.626;2023-03-01T03:11:40;-3.50;80.70
13332;DHT22;6735;51.456;12.626;2023-03-01T03:14:09;-3.50;81.10
13332;DHT22;6735;51.456;12.626;2023-03-01T03:16:40;-3.50;81.10
13332;DHT22;6735;51.456;12.626;2023-03-01T03:19:06;-3.50;81.00
13332;DHT22;6735;51.456;12.626;2023-03-01T03:21:32;-3.60;80.80
13332;DHT22;6735;51.456;12.626;2023-03-01T03:23:58;-3.60;81.10
13332;DHT22;6735;51.456;12.626;2023-03-01T03:26:24;-3.60;81.10
13332;DHT22;6735;51.456;12.626;2023-03-01T03:28:49;-3.60;81.10
13332;DHT22;6735;51.456;12.626;2023-03-01T03:31:15;-3.60;80.80
13332;DHT22;6735;51.456;12.626;2023-03-01T03:33:40;-3.60;80.70
13332;DHT22;6735;51.456;12.626;2023-03-01T03:36:06;-3.60;81.00
13332;DHT22;6735;51.456;12.626;2023-03-01T03:38:32;-3.70;81.00
13332;DHT22;6735;51.456;12.626;2023-03-01T03:41:06;-3.70;81.10
13332;DHT22;6735;51.456;12.626;2023-03-01T03:43:34;-3.70;81.00
13332;DHT22;6735;51.456;12.626;2023-03-01T03:46:00;-3.80;81.10
13332;DHT22;6735;51.456;12.626;2023-03-01T03:48:26;-3.70;81.30
13332;DHT22;6735;51.456;12.626;2023-03-01T03:50:54;-3.80;81.20
13332;DHT22;6735;51.456;12.626;2023-03-01T03:53:20;-3.80;81.00
13332;DHT22;6735;51.456;12.626;2023-03-01T03:55:46;-3.80;80.80
13332;DHT22;6735;51.456;12.626;2023-03-01T03:58:15;-3.80;81.10
13332;DHT22;6735;51.456;12.626;2023-03-01T04:00:43;-3.80;81.90
13332;DHT22;6735;51.456;12.626;2023-03-01T04:03:10;-3.80;81.90
13332;DHT22;6735;51.456;12.626;2023-03-01T04:05:37;-3.80;81.80
13332;DHT22;6735;51.456;12.626;2023-03-01T04:08:04;-3.80;82.10
13332;DHT22;6735;51.456;12.626;2023-03-01T04:11:01;-3.70;82.70
13332;DHT22;6735;51.456;12.626;2023-03-01T04:13:46;-3.70;82.10
13332;DHT22;6735;51.456;12.626;2023-03-01T04:16:11;-3.70;82.60
13332;DHT22;6735;51.456;12.626;2023-03-01T04:18:36;-3.70;82.60
13332;DHT22;6735;51.456;12.626;2023-03-01T04:21:02;-3.70;83.30
13332;DHT22;6735;51.456;12.626;2023-03-01T04:23:27;-3.70;83.10
13332;DHT22;6735;51.456;12.626;2023-03-01T04:25:55;-3.70;83.10
13332;DHT22;6735;51.456;12.626;2023-03-01T04:31:06;-3.70;82.90
13332;DHT22;6735;51.456;12.626;2023-03-01T04:33:42;-3.70;82.80
13332;DHT22;6735;51.456;12.626;2023-03-01T04:36:08;-3.60;81.70
13332;DHT22;6735;51.456;12.626;2023-03-01T04:38:36;-3.60;82.60
13332;DHT22;6735;51.456;12.626;2023-03-01T04:41:07;-3.50;82.70
13332;DHT22;6735;51.456;12.626;2023-03-01T04:43:33;-3.60;82.80
13332;DHT22;6735;51.456;12.626;2023-03-01T04:46:04;-3.60;82.80
13332;DHT22;6735;51.456;12.626;2023-03-01T04:48:31;-3.60;82.70
13332;DHT22;6735;51.456;12.626;2023-03-01T04:50:58;-3.60;82.60
13332;DHT22;6735;51.456;12.626;2023-03-01T04:53:24;-3.60;82.60
13332;DHT22;6735;51.456;12.626;2023-03-01T04:55:50;-3.60;82.70
13332;DHT22;6735;51.456;12.626;2023-03-01T04:58:15;-3.60;82.70
13332;DHT22;6735;51.456;12.626;2023-03-01T05:00:41;-3.60;82.60
13332;DHT22;6735;51.456;12.626;2023-03-01T05:03:08;-3.60;82.30
13332;DHT22;6735;51.456;12.626;2023-03-01T05:05:36;-3.70;82.30
13332;DHT22;6735;51.456;12.626;2023-03-01T05:08:05;-3.70;82.00
13332;DHT22;6735;51.456;12.626;2023-03-01T05:10:33;-3.70;81.90
13332;DHT22;6735;51.456;12.626;2023-03-01T05:13:01;-3.70;81.90
13332;DHT22;6735;51.456;12.626;2023-03-01T05:15:29;-3.80;82.10
13332;DHT22;6735;51.456;12.626;2023-03-01T05:17:57;-3.80;82.10
13332;DHT22;6735;51.456;12.626;2023-03-01T05:20:26;-3.80;82.00
13332;DHT22;6735;51.456;12.626;2023-03-01T05:22:55;-3.80;82.20
13332;DHT22;6735;51.456;12.626;2023-03-01T05:25:21;-3.80;82.10
13332;DHT22;6735;51.456;12.626;2023-03-01T05:27:47;-3.80;82.30
13332;DHT22;6735;51.456;12.626;2023-03-01T05:30:14;-3.80;82.60
13332;DHT22;6735;51.456;12.626;2023-03-01T05:32:47;-3.80;82.70
13332;DHT22;6735;51.456;12.626;2023-03-01T05:35:15;-3.70;82.70
13332;DHT22;6735;51.456;12.626;2023-03-01T05:37:42;-3.80;83.00
13332;DHT22;6735;51.456;12.626;2023-03-01T05:40:10;-3.80;83.10
13332;DHT22;6735;51.456;12.626;2023-03-01T05:42:42;-3.70;82.90
13332;DHT22;6735;51.456;12.626;2023-03-01T05:45:09;-3.80;82.90
13332;DHT22;6735;51.456;12.626;2023-03-01T05:47:35;-3.80;83.00
13332;DHT22;6735;51.456;12.626;2023-03-01T05:50:01;-3.80;83.10
13332;DHT22;6735;51.456;12.626;2023-03-01T05:52:27;-3.80;83.20
13332;DHT22;6735;51.456;12.626;2023-03-01T05:54:53;-3.70;83.20
13332;DHT22;6735;51.456;12.626;2023-03-01T05:57:19;-3.70;83.30
13332;DHT22;6735;51.456;12.626;2023-03-01T05:59:45;-3.70;83.00
13332;DHT22;6735;51.456;12.626;2023-03-01T06:02:11;-3.70;83.00
13332;DHT22;6735;51.456;12.626;2023-03-01T06:04:37;-3.70;83.10
13332;DHT22;6735;51.456;12.626;2023-03-01T06:07:02;-3.70;83.30
13332;DHT22;6735;51.456;12.626;2023-03-01T06:09:28;-3.70;83.30
13332;DHT22;6735;51.456;12.626;2023-03-01T06:11:53;-3.70;83.10
13332;DHT22;6735;51.456;12.626;2023-03-01T06:14:19;-3.70;83.10
13332;DHT22;6735;51.456;12.626;2023-03-01T06:16:46;-3.60;83.10
13332;DHT22;6735;51.456;12.626;2023-03-01T06:19:11;-3.60;83.10
13332;DHT22;6735;51.456;12.626;2023-03-01T06:21:37;-3.60;82.90
13332;DHT22;6735;51.456;12.626;2023-03-01T06:24:02;-3.60;82.90
13332;DHT22;6735;51.456;12.626;2023-03-01T06:26:28;-3.50;82.90
13332;DHT22;6735;51.456;12.626;2023-03-01T06:28:53;-3.50;83.00
13332;DHT22;6735;51.456;12.626;2023-03-01T06:31:19;-3.40;83.10
13332;DHT22;6735;51.456;12.626;2023-03-01T06:33:45;-3.40;83.10
13332;DHT22;6735;51.456;12.626;2023-03-01T06:36:10;-3.30;83.00
13332;DHT22;6735;51.456;12.626;2023-03-01T06:38:36;-3.20;83.00
13332;DHT22;6735;51.456;12.626;2023-03-01T06:41:01;-3.20;83.00
13332;DHT22;6735;51.456;12.626;2023-03-01T06:43:27;-3.20;83.10
13332;DHT22;6735;51.456;12.626;2023-03-01T06:45:52;-3.10;83.20
13332;DHT22;6735;51.456;12.626;2023-03-01T06:48:18;-3.10;83.10
13332;DHT22;6735;51.456;12.626;2023-03-01T06:50:43;-3.10;83.10
13332;DHT22;6735;51.456;12.626;2023-03-01T06:53:09;-3.10;83.00
13332;DHT22;6735;51.456;12.626;2023-03-01T06:55:35;-3.10;83.00
13332;DHT22;6735;51.456;12.626;2023-03-01T06:58:02;-3.00;82.90
13332;DHT22;6735;51.456;12.626;2023-03-01T07:00:28;-2.90;83.10
13332;DHT22;6735;51.456;12.626;2023-03-01T07:02:53;-2.90;83.30
13332;DHT22;6735;51.456;12.626;2023-03-01T07:05:19;-2.90;83.20
13332;DHT22;6735;51.456;12.626;2023-03-01T07:07:45;-2.90;83.10
13332;DHT22;6735;51.456;12.626;2023-03-01T07:10:11;-2.90;82.60
13332;DHT22;6735;51.456;12.626;2023-03-01T07:12:37;-2.90;83.00
13332;DHT22;6735;51.456;12.626;2023-03-01T07:15:03;-2.80;83.50
13332;DHT22;6735;51.456;12.626;2023-03-01T07:17:29;-2.70;83.10
13332;DHT22;6735;51.456;12.626;2023-03-01T07:19:54;-2.70;83.80
13332;DHT22;6735;51.456;12.626;2023-03-01T07:22:20;-2.60;83.40
13332;DHT22;6735;51.456;12.626;2023-03-01T07:24:45;-2.50;83.30
13332;DHT22;6735;51.456;12.626;2023-03-01T07:27:10;-2.40;83.50
13332;DHT22;6735;51.456;12.626;2023-03-01T07:29:36;-2.30;83.50
13332;DHT22;6735;51.456;12.626;2023-03-01T07:32:02;-2.10;83.30
13332;DHT22;6735;51.456;12.626;2023-03-01T07:34:28;-2.00;83.10
13332;DHT22;6735;51.456;12.626;2023-03-01T07:36:54;-1.90;82.80
13332;DHT22;6735;51.456;12.626;2023-03-01T07:39:19;-1.80;82.90
13332;DHT22;6735;51.456;12.626;2023-03-01T07:41:45;-1.70;82.60
13332;DHT22;6735;51.456;12.626;2023-03-01T07:44:10;-1.60;82.30
13332;DHT22;6735;51.456;12.626;2023-03-01T07:46:36;-1.50;82.20
13332;DHT22;6735;51.456;12.626;2023-03-01T07:49:01;-1.30;82.10
13332;DHT22;6735;51.456;12.626;2023-03-01T07:51:27;-1.10;82.00
13332;DHT22;6735;51.456;12.626;2023-03-01T07:53:52;-0.70;81.50
13332;DHT22;6735;51.456;12.626;2023-03-01T07:56:18;-0.30;80.60
13332;DHT22;6735;51.456;12.626;2023-03-01T07:58:45;0.20;80.00
13332;DHT22;6735;51.456;12.626;2023-03-01T08:01:13;0.70;78.10
13332;DHT22;6735;51.456;12.626;2023-03-01T08:03:39;1.30;77.30
13332;DHT22;6735;51.456;12.626;2023-03-01T08:06:06;1.90;75.70
13332;DHT22;6735;51.456;12.626;2023-03-01T08:08:33;2.40;73.60
13332;DHT22;6735;51.456;12.626;2023-03-01T08:11:00;2.90;71.20
13332;DHT22;6735;51.456;12.626;2023-03-01T08:13:26;3.30;72.20
13332;DHT22;6735;51.456;12.626;2023-03-01T08:15:52;3.60;71.10
13332;DHT22;6735;51.456;12.626;2023-03-01T08:18:19;3.80;69.60
13332;DHT22;6735;51.456;12.626;2023-03-01T08:20:45;3.90;67.90
13332;DHT22;6735;51.456;12.626;2023-03-01T08:23:11;4.20;68.20
13332;DHT22;6735;51.456;12.626;2023-03-01T08:25:36;4.50;66.00
13332;DHT22;6735;51.456;12.626;2023-03-01T08:28:02;4.70;64.20
13332;DHT22;6735;51.456;12.626;2023-03-01T08:30:28;5.00;64.90
13332;DHT22;6735;51.456;12.626;2023-03-01T08:32:53;5.20;65.00
13332;DHT22;6735;51.456;12.626;2023-03-01T08:35:19;5.50;64.70
13332;DHT22;6735;51.456;12.626;2023-03-01T08:37:45;5.40;63.50
13332;DHT22;6735;51.456;12.626;2023-03-01T08:40:11;5.70;63.30
13332;DHT22;6735;51.456;12.626;2023-03-01T08:42:39;5.70;62.40
13332;DHT22;6735;51.456;12.626;2023-03-01T08:45:05;5.90;61.20
13332;DHT22;6735;51.456;12.626;2023-03-01T08:47:31;6.00;62.80
13332;DHT22;6735;51.456;12.626;2023-03-01T08:49:56;6.00;62.40
13332;DHT22;6735;51.456;12.626;2023-03-01T08:52:21;5.90;62.10
13332;DHT22;6735;51.456;12.626;2023-03-01T08:54:48;5.90;63.10
13332;DHT22;6735;51.456;12.626;2023-03-01T08:57:14;5.80;62.80
13332;DHT22;6735;51.456;12.626;2023-03-01T08:59:39;5.90;61.40
13332;DHT22;6735;51.456;12.626;2023-03-01T09:02:12;6.00;61.20
13332;DHT22;6735;51.456;12.626;2023-03-01T09:04:38;6.10;61.20
13332;DHT22;6735;51.456;12.626;2023-03-01T09:07:03;6.10;58.30
13332;DHT22;6735;51.456;12.626;2023-03-01T09:09:29;6.30;58.70
13332;DHT22;6735;51.456;12.626;2023-03-01T09:11:55;6.20;58.90
13332;DHT22;6735;51.456;12.626;2023-03-01T09:14:20;6.20;57.70
13332;DHT22;6735;51.456;12.626;2023-03-01T09:16:46;6.20;59.70
13332;DHT22;6735;51.456;12.626;2023-03-01T09:19:12;6.20;58.30
13332;DHT22;6735;51.456;12.626;2023-03-01T09:21:38;6.10;56.80
13332;DHT22;6735;51.456;12.626;2023-03-01T09:24:03;6.30;57.80
13332;DHT22;6735;51.456;12.626;2023-03-01T09:26:29;6.20;57.00
13332;DHT22;6735;51.456;12.626;2023-03-01T09:28:55;6.10;56.60
13332;DHT22;6735;51.456;12.626;2023-03-01T09:31:23;5.80;56.50
13332;DHT22;6735;51.456;12.626;2023-03-01T09:33:51;5.60;57.80
13332;DHT22;6735;51.456;12.626;2023-03-01T09:36:21;5.80;58.10
13332;DHT22;6735;51.456;12.626;2023-03-01T09:38:47;6.00;57.60
13332;DHT22;6735;51.456;12.626;2023-03-01T09:44:05;6.20;55.90
13332;DHT22;6735;51.456;12.626;2023-03-01T09:46:40;6.10;55.00
13332;DHT22;6735;51.456;12.626;2023-03-01T09:49:17;6.00;56.90
13332;DHT22;6735;51.456;12.626;2023-03-01T09:51:53;5.80;55.50
13332;DHT22;6735;51.456;12.626;2023-03-01T09:54:19;5.60;56.70
13332;DHT22;6735;51.456;12.626;2023-03-01T09:57:24;5.60;56.20
13332;DHT22;6735;51.456;12.626;2023-03-01T10:00:07;5.40;57.10
13332;DHT22;6735;51.456;12.626;2023-03-01T10:02:59;5.00;57.60
13332;DHT22;6735;51.456;12.626;2023-03-01T10:05:48;5.10;57.50
13332;DHT22;6735;51.456;12.626;2023-03-01T10:10:54;4.60;58.50
13332;DHT22;6735;51.456;12.626;2023-03-01T10:13:44;4.70;58.20
13332;DHT22;6735;51.456;12.626;2023-03-01T10:16:22;4.80;57.90
13332;DHT22;6735;51.456;12.626;2023-03-01T10:18:59;4.60;57.30
13332;DHT22;6735;51.456;12.626;2023-03-01T10:21:27;4.60;58.20
13332;DHT22;6735;51.456;12.626;2023-03-01T10:23:53;4.60;57.70
13332;DHT22;6735;51.456;12.626;2023-03-01T10:26:51;4.50;57.20
13332;DHT22;6735;51.456;12.626;2023-03-01T10:29:23;4.30;57.60
13332;DHT22;6735;51.456;12.626;2023-03-01T10:31:52;4.30;58.10
13332;DHT22;6735;51.456;12.626;2023-03-01T10:34:30;4.30;57.70
13332;DHT22;6735;51.456;12.626;2023-03-01T10:39:35;4.20;57.70
13332;DHT22;6735;51.456;12.626;2023-03-01T10:42:05;4.20;57.20
13332;DHT22;6735;51.456;12.626;2023-03-01T10:44:39;4.20;57.00
13332;DHT22;6735;51.456;12.626;2023-03-01T10:47:05;4.20;56.50
13332;DHT22;6735;51.456;12.626;2023-03-01T10:49:37;4.30;57.20
13332;DHT22;6735;51.456;12.626;2023-03-01T10:52:17;4.20;56.70
13332;DHT22;6735;51.456;12.626;2023-03-01T10:54:52;4.40;57.20
13332;DHT22;6735;51.456;12.626;2023-03-01T10:57:33;4.30;56.60
13332;DHT22;6735;51.456;12.626;2023-03-01T11:00:25;4.40;56.80
13332;DHT22;6735;51.456;12.626;2023-03-01T11:03:02;4.40;56.90
13332;DHT22;6735;51.456;12.626;2023-03-01T11:05:29;4.30;57.10
13332;DHT22;6735;51.456;12.626;2023-03-01T11:07:59;4.30;56.30
13332;DHT22;6735;51.456;12.626;2023-03-01T11:10:28;4.20;56.40
13332;DHT22;6735;51.456;12.626;2023-03-01T11:13:05;4.20;56.10
13332;DHT22;6735;51.456;12.626;2023-03-01T11:15:31;4.30;56.40
13332;DHT22;6735;51.456;12.626;2023-03-01T11:17:57;4.40;56.10
13332;DHT22;6735;51.456;12.626;2023-03-01T11:20:32;4.30;56.10
13332;DHT22;6735;51.456;12.626;2023-03-01T11:23:04;4.30;55.20
13332;DHT22;6735;51.456;12.626;2023-03-01T11:25:35;4.40;55.00
13332;DHT22;6735;51.456;12.626;2023-03-01T11:28:04;4.50;55.20
13332;DHT22;6735;51.456;12.626;2023-03-01T11:30:38;4.40;55.70
13332;DHT22;6735;51.456;12.626;2023-03-01T11:33:08;4.50;56.50
13332;DHT22;6735;51.456;12.626;2023-03-01T11:35:42;4.60;56.80
13332;DHT22;6735;51.456;12.626;2023-03-01T11:38:17;4.60;56.60
13332;DHT22;6735;51.456;12.626;2023-03-01T11:43:37;4.40;57.50
13332;DHT22;6735;51.456;12.626;2023-03-01T11:52:04;4.50;57.30
13332;DHT22;6735;51.456;12.626;2023-03-01T11:54:55;4.60;57.30
13332;DHT22;6735;51.456;12.626;2023-03-01T12:00:42;4.70;57.00
13332;DHT22;6735;51.456;12.626;2023-03-01T12:06:35;4.80;56.80
13332;DHT22;6735;51.456;12.626;2023-03-01T12:09:44;4.90;56.40
13332;DHT22;6735;51.456;12.626;2023-03-01T12:12:39;4.90;55.60
13332;DHT22;6735;51.456;12.626;2023-03-01T12:18:07;5.00;54.80
13332;DHT22;6735;51.456;12.626;2023-03-01T12:20:49;5.00;54.10
13332;DHT22;6735;51.456;12.626;2023-03-01T12:23:27;5.10;54.30
13332;DHT22;6735;51.456;12.626;2023-03-01T12:26:13;5.10;54.10
13332;DHT22;6735;51.456;12.626;2023-03-01T12:29:06;5.10;53.40
13332;DHT22;6735;51.456;12.626;2023-03-01T12:32:04;5.20;53.60
13332;DHT22;6735;51.456;12.626;2023-03-01T12:37:39;5.30;52.50
13332;DHT22;6735;51.456;12.626;2023-03-01T12:40:30;5.40;52.90
13332;DHT22;6735;51.456;12.626;2023-03-01T12:49:13;5.40;50.90
13332;DHT22;6735;51.456;12.626;2023-03-01T12:51:44;5.40;50.40
13332;DHT22;6735;51.456;12.626;2023-03-01T12:54:28;5.50;49.90
13332;DHT22;6735;51.456;12.626;2023-03-01T12:56:56;5.50;49.60
13332;DHT22;6735;51.456;12.626;2023-03-01T13:02:15;5.50;48.40
13332;DHT22;6735;51.456;12.626;2023-03-01T13:04:59;5.60;50.00
13332;DHT22;6735;51.456;12.626;2023-03-01T13:08:02;5.70;49.10
13332;DHT22;6735;51.456;12.626;2023-03-01T13:10:39;5.70;46.80
13332;DHT22;6735;51.456;12.626;2023-03-01T13:13:21;5.70;47.00
13332;DHT22;6735;51.456;12.626;2023-03-01T13:15:47;5.80;47.40
13332;DHT22;6735;51.456;12.626;2023-03-01T13:31:05;5.90;46.00
13332;DHT22;6735;51.456;12.626;2023-03-01T13:35:58;5.90;45.30
13332;DHT22;6735;51.456;12.626;2023-03-01T13:41:16;6.10;45.60
13332;DHT22;6735;51.456;12.626;2023-03-01T13:43:44;6.10;44.70
13332;DHT22;6735;51.456;12.626;2023-03-01T13:46:21;6.20;44.60
13332;DHT22;6735;51.456;12.626;2023-03-01T13:48:51;6.20;44.50
13332;DHT22;6735;51.456;12.626;2023-03-01T13:51:25;6.20;45.00
13332;DHT22;6735;51.456;12.626;2023-03-01T13:53:51;6.30;45.60
13332;DHT22;6735;51.456;12.626;2023-03-01T13:56:27;6.20;44.60
13332;DHT22;6735;51.456;12.626;2023-03-01T13:58:58;6.20;44.60
13332;DHT22;6735;51.456;12.626;2023-03-01T14:01:36;6.30;43.70
13332;DHT22;6735;51.456;12.626;2023-03-01T14:04:02;6.30;44.10
13332;DHT22;6735;51.456;12.626;2023-03-01T14:06:33;6.30;44.20
13332;DHT22;6735;51.456;12.626;2023-03-01T14:09:10;6.30;43.70
13332;DHT22;6735;51.456;12.626;2023-03-01T14:12:03;6.30;44.30
13332;DHT22;6735;51.456;12.626;2023-03-01T14:14:42;6.30;43.60
13332;DHT22;6735;51.456;12.626;2023-03-01T14:19:59;6.30;43.50
13332;DHT22;6735;51.456;12.626;2023-03-01T14:22:28;6.30;44.30
13332;DHT22;6735;51.456;12.626;2023-03-01T14:24:59;6.40;44.50
13332;DHT22;6735;51.456;12.626;2023-03-01T14:27:29;6.40;44.30
13332;DHT22;6735;51.456;12.626;2023-03-01T14:30:01;6.40;44.60
13332;DHT22;6735;51.456;12.626;2023-03-01T14:32:30;6.40;44.10
13332;DHT22;6735;51.456;12.626;2023-03-01T14:34:56;6.40;43.90
13332;DHT22;6735;51.456;12.626;2023-03-01T14:37:34;6.50;44.00
13332;DHT22;6735;51.456;12.626;2023-03-01T14:40:02;6.40;43.90
13332;DHT22;6735;51.456;12.626;2023-03-01T14:42:34;6.50;44.70
13332;DHT22;6735;51.456;12.626;2023-03-01T14:45:02;6.50;43.90
13332;DHT22;6735;51.456;12.626;2023-03-01T14:47:34;6.50;43.60
13332;DHT22;6735;51.456;12.626;2023-03-01T14:52:51;6.40;43.30
13332;DHT22;6735;51.456;12.626;2023-03-01T14:55:20;6.30;43.40
13332;DHT22;6735;51.456;12.626;2023-03-01T14:57:51;6.30;42.90
13332;DHT22;6735;51.456;12.626;2023-03-01T15:00:20;6.20;43.60
13332;DHT22;6735;51.456;12.626;2023-03-01T15:02:49;6.20;43.80
13332;DHT22;6735;51.456;12.626;2023-03-01T15:05:18;6.20;43.30
13332;DHT22;6735;51.456;12.626;2023-03-01T15:07:44;6.10;43.80
13332;DHT22;6735;51.456;12.626;2023-03-01T15:10:23;6.10;44.00
13332;DHT22;6735;51.456;12.626;2023-03-01T15:12:49;6.10;43.80
13332;DHT22;6735;51.456;12.626;2023-03-01T15:15:33;6.10;43.30
13332;DHT22;6735;51.456;12.626;2023-03-01T15:18:18;6.10;43.90
13332;DHT22;6735;51.456;12.626;2023-03-01T15:20:45;6.10;43.40
13332;DHT22;6735;51.456;12.626;2023-03-01T15:23:21;6.10;43.30
13332;DHT22;6735;51.456;12.626;2023-03-01T15:25:47;6.00;43.60
13332;DHT22;6735;51.456;12.626;2023-03-01T15:28:20;6.00;43.50
13332;DHT22;6735;51.456;12.626;2023-03-01T15:30:46;6.00;43.50
13332;DHT22;6735;51.456;12.626;2023-03-01T15:33:19;5.90;44.00
13332;DHT22;6735;51.456;12.626;2023-03-01T15:35:48;5.90;44.20
13332;DHT22;6735;51.456;12.626;2023-03-01T15:41:36;5.80;44.20
13332;DHT22;6735;51.456;12.626;2023-03-01T15:44:16;5.70;44.30
13332;DHT22;6735;51.456;12.626;2023-03-01T15:46:46;5.80;44.00
13332;DHT22;6735;51.456;12.626;2023-03-01T15:49:35;5.70;43.40
13332;DHT22;6735;51.456;12.626;2023-03-01T15:52:02;5.70;43.30
13332;DHT22;6735;51.456;12.626;2023-03-01T15:54:28;5.70;44.00
13332;DHT22;6735;51.456;12.626;2023-03-01T15:56:54;5.70;44.40
13332;DHT22;6735;51.456;12.626;2023-03-01T15:59:20;5.60;44.90
13332;DHT22;6735;51.456;12.626;2023-03-01T16:01:48;5.60;45.20
13332;DHT22;6735;51.456;12.626;2023-03-01T16:04:16;5.50;45.60
13332;DHT22;6735;51.456;12.626;2023-03-01T16:06:46;5.50;45.80
13332;DHT22;6735;51.456;12.626;2023-03-01T16:09:20;5.40;46.10
13332;DHT22;6735;51.456;12.626;2023-03-01T16:11:46;5.40;46.50
13332;DHT22;6735;51.456;12.626;2023-03-01T16:14:12;5.30;46.60
13332;DHT22;6735;51.456;12.626;2023-03-01T16:16:37;5.30;46.80
13332;DHT22;6735;51.456;12.626;2023-03-01T16:19:03;5.30;47.40
13332;DHT22;6735;51.456;12.626;2023-03-01T16:21:28;5.40;47.20
13332;DHT22;6735;51.456;12.626;2023-03-01T16:23:54;5.40;47.50
13332;DHT22;6735;51.456;12.626;2023-03-01T16:26:19;5.40;47.90
13332;DHT22;6735;51.456;12.626;2023-03-01T16:28:45;5.50;49.40
13332;DHT22;6735;51.456;12.626;2023-03-01T16:31:11;5.40;47.60
13332;DHT22;6735;51.456;12.626;2023-03-01T16:33:40;5.50;47.70
13332;DHT22;6735;51.456;12.626;2023-03-01T16:36:08;5.40;47.40
13332;DHT22;6735;51.456;12.626;2023-03-01T16:38:34;5.30;47.70
13332;DHT22;6735;51.456;12.626;2023-03-01T16:41:00;5.20;47.30
13332;DHT22;6735;51.456;12.626;2023-03-01T16:43:25;5.10;47.30
13332;DHT22;6735;51.456;12.626;2023-03-01T16:45:51;5.10;47.60
13332;DHT22;6735;51.456;12.626;2023-03-01T16:48:16;5.00;47.60
13332;DHT22;6735;51.456;12.626;2023-03-01T16:50:42;5.00;48.00
13332;DHT22;6735;51.456;12.626;2023-03-01T16:53:08;4.80;48.10
13332;DHT22;6735;51.456;12.626;2023-03-01T16:55:33;4.70;48.40
13332;DHT22;6735;51.456;12.626;2023-03-01T16:57:59;4.60;48.80
13332;DHT22;6735;51.456;12.626;2023-03-01T17:00:24;4.40;49.30
13332;DHT22;6735;51.456;12.626;2023-03-01T17:02:50;4.20;49.70
13332;DHT22;6735;51.456;12.626;2023-03-01T17:05:17;4.10;49.90